Time;durP1;ratioP1;P1;durP2;ratioP2;P2;SDS_P1;SDS_P2;PMS_P1;PMS_P2;Temp;Humidity;BMP_temperature;BMP_pressure;BME280_temperature;BME280_humidity;BME280_pressure;Samples;Min_cycle;Max_cycle;Signal;HPM_P1;HPM_P2
2023/11/07 00:00:39;;;;;;;0.20;0.20;;;;;;;15.16;100.00;100414.47;5012814;28;20026;-86
2023/11/07 00:03:05;;;;;;;0.20;0.20;;;;;;;15.23;100.00;100434.13;4995067;28;20069;-86
2023/11/07 00:05:30;;;;;;;0.20;0.20;;;;;;;15.41;100.00;100459.53;4994150;28;20046;-86
2023/11/07 00:07:55;;;;;;;0.20;0.20;;;;;;;15.21;100.00;100428.13;5010177;28;20029;-86
2023/11/07 00:10:21;;;;;;;0.20;0.20;;;;;;;15.24;100.00;100423.75;5014532;28;20025;-86
2023/11/07 00:12:49;;;;;;;0.20;0.20;;;;;;;15.37;100.00;100413.81;5032203;28;20079;-86
2023/11/07 00:15:14;;;;;;;0.20;0.20;;;;;;;15.67;100.00;100455.75;5014383;28;20091;-86
2023/11/07 00:17:41;;;;;;;0.20;0.20;;;;;;;15.57;100.00;100434.81;5014305;28;20036;-86
2023/11/07 00:20:08;;;;;;;0.20;0.20;;;;;;;15.61;100.00;100446.84;5014373;28;20033;-85
2023/11/07 00:22:33;;;;;;;0.20;0.20;;;;;;;15.67;100.00;100455.75;5014070;28;20107;-86
2023/11/07 00:24:59;;;;;;;0.20;0.20;;;;;;;15.65;100.00;100446.88;5014137;28;20080;-85
2023/11/07 00:27:24;;;;;;;0.20;0.20;;;;;;;15.68;100.00;100458.13;5014209;28;20026;-85
2023/11/07 00:29:49;;;;;;;0.20;0.20;;;;;;;15.53;100.00;100436.78;5014214;28;20041;-86
2023/11/07 00:32:15;;;;;;;0.20;0.20;;;;;;;15.36;100.00;100417.84;5031763;28;20029;-86
2023/11/07 00:34:40;;;;;;;0.20;0.20;;;;;;;15.43;100.00;100429.09;5013973;28;20473;-86
2023/11/07 00:37:06;;;;;;;0.20;0.20;;;;;;;15.63;100.00;100466.91;5014008;28;20151;-86
2023/11/07 00:39:31;;;;;;;0.20;0.20;;;;;;;15.49;100.00;100435.94;5013664;28;20389;-86
2023/11/07 00:41:57;;;;;;;0.20;0.20;;;;;;;15.51;100.00;100441.97;5031873;28;20083;-86
2023/11/07 00:44:23;;;;;;;0.20;0.20;;;;;;;15.56;100.00;100452.84;5031730;28;20496;-86
2023/11/07 00:46:48;;;;;;;0.20;0.20;;;;;;;15.67;100.00;100472.56;5013958;28;20574;-86
2023/11/07 00:49:14;;;;;;;0.20;0.20;;;;;;;15.53;100.00;100456.41;5013918;28;20025;-86
2023/11/07 00:51:39;;;;;;;0.20;0.20;;;;;;;15.32;100.00;100428.22;4998413;28;20022;-86
2023/11/07 00:54:05;;;;;;;0.20;0.20;;;;;;;15.46;100.00;100442.34;4993914;28;20037;-87
2023/11/07 00:56:31;;;;;;;0.20;0.20;;;;;;;15.60;100.00;100467.66;5011484;28;20121;-86
2023/11/07 00:58:56;;;;;;;0.20;0.20;;;;;;;15.34;100.00;100432.25;4994020;28;20030;-86
2023/11/07 01:01:22;;;;;;;0.20;0.20;;;;;;;15.46;100.00;100442.34;5011985;28;20040;-87
2023/11/07 01:03:47;;;;;;;0.20;0.20;;;;;;;15.56;100.00;100466.84;4993903;28;20112;-87
2023/11/07 01:06:13;;;;;;;0.20;0.20;;;;;;;15.43;100.00;100445.91;4993924;28;20493;-86
2023/11/07 01:08:38;;;;;;;0.20;0.20;;;;;;;15.45;100.00;100449.16;4993701;28;20029;-86
2023/11/07 01:11:05;;;;;;;0.20;0.20;;;;;;;15.49;100.00;100460.38;4993833;28;20136;-87
2023/11/07 01:13:30;;;;;;;0.20;0.20;;;;;;;15.37;100.00;100436.25;4993769;28;20465;-87
2023/11/07 01:15:56;;;;;;;0.20;0.20;;;;;;;15.32;100.00;100439.41;4993972;28;20060;-86
2023/11/07 01:18:22;;;;;;;0.20;0.20;;;;;;;15.49;100.00;100441.53;4993349;28;20032;-86
2023/11/07 01:20:48;;;;;;;0.20;0.20;;;;;;;15.42;100.00;100435.91;5002044;28;20436;-86
2023/11/07 01:23:13;;;;;;;0.20;0.20;;;;;;;15.45;100.00;100465.97;5030825;28;20032;-86
2023/11/07 01:25:40;;;;;;;0.20;0.20;;;;;;;15.54;100.00;100477.63;5013114;28;20033;-86
2023/11/07 01:28:06;;;;;;;0.20;0.20;;;;;;;15.32;100.00;100445.03;5031030;28;20021;-86
2023/11/07 01:30:31;;;;;;;0.20;0.20;;;;;;;15.34;100.00;100465.06;5013290;28;20124;-86
2023/11/07 01:32:57;;;;;;;0.20;0.20;;;;;;;15.38;100.00;100471.50;5030729;28;20029;-86
2023/11/07 01:35:23;;;;;;;0.20;0.20;;;;;;;15.38;100.00;100451.88;5013396;28;20358;-86
2023/11/07 01:37:50;;;;;;;0.20;0.20;;;;;;;15.31;100.00;100437.81;5013276;28;20081;-87
2023/11/07 01:40:15;;;;;;;0.20;0.20;;;;;;;15.27;100.00;100443.38;5013633;28;20037;-87
2023/11/07 01:42:45;;;;;;;0.20;0.20;;;;;;;15.29;100.00;100446.63;5013660;28;20481;-87
2023/11/07 01:45:11;;;;;;;0.20;0.20;;;;;;;15.38;100.00;100465.91;5013773;28;20117;-87
2023/11/07 01:47:38;;;;;;;0.20;0.20;;;;;;;15.35;100.00;100458.28;5014587;28;20041;-87
2023/11/07 01:50:06;;;;;;;0.20;0.20;;;;;;;15.07;100.00;100420.41;5015086;28;20119;-86
2023/11/07 01:52:32;;;;;;;0.20;0.20;;;;;;;15.26;100.00;100435.38;5006976;28;20083;-86
2023/11/07 01:54:58;;;;;;;0.20;0.20;;;;;;;15.22;100.00;100446.56;4993477;28;20022;-87
2023/11/07 01:57:24;;;;;;;0.20;0.20;;;;;;;15.08;100.00;100440.84;4993270;28;20033;-87
2023/11/07 01:59:52;;;;;;;0.20;0.20;;;;;;;14.97;100.00;100418.34;4993729;28;20026;-87
2023/11/07 02:02:19;;;;;;;0.20;0.20;;;;;;;15.01;100.00;100447.16;4993723;28;20366;-87
2023/11/07 02:04:47;;;;;;;0.20;0.20;;;;;;;14.97;100.00;100426.75;4993848;28;20391;-87
2023/11/07 02:07:15;;;;;;;0.20;0.20;;;;;;;14.94;100.00;100433.09;4993887;28;20444;-87
2023/11/07 02:09:41;;;;;;;0.20;0.20;;;;;;;15.03;100.00;100438.41;5000817;28;20022;-87
2023/11/07 02:12:09;;;;;;;0.20;0.20;;;;;;;14.83;100.00;100399.41;5031280;28;20488;-87
2023/11/07 02:14:36;;;;;;;0.20;0.20;;;;;;;15.06;100.00;100446.81;5014555;28;20312;-86
2023/11/07 02:17:08;;;;;;;0.20;0.20;;;;;;;15.11;100.00;100451.25;5016040;28;20113;-86
2023/11/07 02:19:35;;;;;;;0.20;0.20;;;;;;;15.10;100.00;100442.06;5015511;28;20099;-87
2023/11/07 02:22:01;;;;;;;0.20;0.20;;;;;;;14.93;100.00;100414.69;5014471;28;20068;-86
2023/11/07 02:24:28;;;;;;;0.30;0.30;;;;;;;15.10;100.00;100444.06;5013374;28;20088;-87
2023/11/07 02:26:55;;;;;;;0.20;0.20;;;;;;;15.12;100.00;100453.66;5013283;28;20026;-87
2023/11/07 02:29:23;;;;;;;0.20;0.20;;;;;;;15.20;100.00;100455.34;5015059;28;20029;-87
2023/11/07 02:31:50;;;;;;;0.20;0.20;;;;;;;15.08;100.00;100436.03;5034607;28;20029;-87
2023/11/07 02:34:16;;;;;;;0.20;0.20;;;;;;;15.22;100.00;100456.97;5034528;28;20042;-88
2023/11/07 02:36:41;;;;;;;0.20;0.20;;;;;;;15.07;100.00;100433.59;5016587;28;20682;-86
2023/11/07 02:39:07;;;;;;;0.20;0.20;;;;;;;15.11;100.00;100443.66;5016799;28;20032;-87
2023/11/07 02:41:33;;;;;;;0.20;0.20;;;;;;;15.13;100.00;100434.88;5016621;28;20291;-87
2023/11/07 02:43:59;;;;;;;0.20;0.20;;;;;;;14.97;100.00;100407.13;5016402;28;20029;-86
2023/11/07 02:46:26;;;;;;;0.20;0.20;;;;;;;14.99;100.00;100417.94;5016571;28;20549;-87
2023/11/07 02:48:51;;;;;;;0.20;0.20;;;;;;;15.06;100.00;100423.59;5016651;28;20032;-87
2023/11/07 02:51:17;;;;;;;0.20;0.20;;;;;;;15.19;100.00;100447.34;5016121;28;20029;-87
2023/11/07 02:53:44;;;;;;;0.20;0.20;;;;;;;15.09;100.00;100426.44;5016040;28;20037;-87
2023/11/07 02:56:10;;;;;;;0.20;0.20;;;;;;;15.15;100.00;100435.28;5016214;28;20033;-87
2023/11/07 02:58:36;;;;;;;0.20;0.20;;;;;;;14.91;100.00;100420.69;5015811;28;20035;-87
2023/11/07 03:01:02;;;;;;;0.20;0.20;;;;;;;15.08;100.00;100440.84;5016214;28;20034;-87
2023/11/07 03:03:28;;;;;;;0.20;0.20;;;;;;;15.20;100.00;100438.53;5015641;28;20025;-87
2023/11/07 03:05:54;;;;;;;0.20;0.20;;;;;;;15.06;100.00;100418.78;5015778;28;20098;-86
2023/11/07 03:08:19;;;;;;;0.20;0.20;;;;;;;15.22;100.00;100442.94;5015756;28;20105;-87
2023/11/07 03:10:45;;;;;;;0.20;0.20;;;;;;;15.05;100.00;100424.78;5015923;28;20037;-86
2023/11/07 03:13:10;;;;;;;0.20;0.20;;;;;;;15.01;100.00;100421.16;5015580;28;20431;-87
2023/11/07 03:15:35;;;;;;;0.20;0.20;;;;;;;15.16;100.00;100460.13;5016124;28;20030;-87
2023/11/07 03:18:01;;;;;;;0.20;0.20;;;;;;;15.01;100.00;100441.56;5015492;28;20029;-87
2023/11/07 03:20:27;;;;;;;0.20;0.20;;;;;;;15.11;100.00;100449.25;5010315;28;20108;-87
2023/11/07 03:22:52;;;;;;;0.20;0.20;;;;;;;15.13;100.00;100444.09;5012276;28;20387;-86
2023/11/07 03:25:19;;;;;;;0.20;0.20;;;;;;;15.02;100.00;100432.00;5012312;28;20077;-86
2023/11/07 03:27:45;;;;;;;0.20;0.20;;;;;;;15.01;100.00;100426.75;5012039;28;20474;-85
2023/11/07 03:30:10;;;;;;;0.20;0.20;;;;;;;15.17;100.00;100450.50;4996134;28;20021;-86
2023/11/07 03:32:37;;;;;;;0.20;0.20;;;;;;;14.97;100.00;100432.34;4995666;28;20045;-87
2023/11/07 03:35:02;;;;;;;0.20;0.20;;;;;;;15.02;100.00;100429.19;4995724;28;20030;-87
2023/11/07 03:37:28;;;;;;;0.20;0.20;;;;;;;15.06;100.00;100438.41;4995441;28;20424;-87
2023/11/07 03:39:53;;;;;;;0.20;0.20;;;;;;;14.98;100.00;100431.16;4994485;28;20033;-87
2023/11/07 03:42:18;;;;;;;0.20;0.20;;;;;;;15.00;100.00;100425.94;5011563;28;20022;-86
2023/11/07 03:44:44;;;;;;;0.20;0.20;;;;;;;15.13;100.00;100443.28;5013121;28;20371;-87
2023/11/07 03:47:09;;;;;;;0.20;0.20;;;;;;;15.17;100.00;100455.31;5012676;28;20036;-87
2023/11/07 03:49:35;;;;;;;0.20;0.20;;;;;;;15.14;100.00;100465.31;5011786;28;20037;-87
2023/11/07 03:52:01;;;;;;;0.20;0.20;;;;;;;14.88;100.00;100434.66;5029848;28;20495;-87
2023/11/07 03:54:26;;;;;;;0.20;0.20;;;;;;;15.08;100.00;100464.06;5032477;28;20087;-86
2023/11/07 03:56:52;;;;;;;0.20;0.20;;;;;;;15.05;100.00;100450.81;5014957;28;20033;-86
2023/11/07 03:59:18;;;;;;;0.20;0.20;;;;;;;15.03;100.00;100458.81;5005933;28;20105;-87
2023/11/07 04:01:43;;;;;;;0.20;0.20;;;;;;;14.88;100.00;100420.66;4995062;28;20025;-87
2023/11/07 04:04:09;;;;;;;0.20;0.20;;;;;;;15.12;100.00;100445.25;4995248;28;20068;-87
2023/11/07 04:06:34;;;;;;;0.20;0.20;;;;;;;15.30;100.00;100458.63;4978267;28;20056;-86
2023/11/07 04:09:00;;;;;;;0.20;0.20;;;;;;;15.24;100.00;100463.00;4975477;28;20026;-87
2023/11/07 04:11:26;;;;;;;0.20;0.20;;;;;;;14.96;100.00;100401.88;4975399;28;20374;-86
2023/11/07 04:13:51;;;;;;;0.20;0.20;;;;;;;15.22;100.00;100440.13;4977673;28;20053;-87
2023/11/07 04:16:20;;;;;;;0.20;0.20;;;;;;;15.30;100.00;100453.03;4994765;28;20122;-86
2023/11/07 04:18:46;;;;;;;0.20;0.20;;;;;;;15.28;100.00;100444.19;5012422;28;20490;-86
2023/11/07 04:21:11;;;;;;;0.20;0.20;;;;;;;15.20;100.00;100427.31;4983375;28;20037;-86
2023/11/07 04:23:37;;;;;;;0.20;0.20;;;;;;;15.14;100.00;100412.06;4975321;28;20026;-86
2023/11/07 04:26:03;;;;;;;0.20;0.20;;;;;;;15.34;100.00;100437.03;4975342;28;20038;-86
2023/11/07 04:28:29;;;;;;;0.20;0.20;;;;;;;15.18;100.00;100412.91;4991284;28;20121;-86
2023/11/07 04:30:54;;;;;;;0.20;0.20;;;;;;;15.36;100.00;100432.66;4991383;28;20058;-87
2023/11/07 04:33:21;;;;;;;0.20;0.20;;;;;;;15.22;100.00;100420.53;4992381;28;20095;-86
2023/11/07 04:35:46;;;;;;;0.20;0.20;;;;;;;15.36;100.00;100443.06;4975008;28;20049;-86
2023/11/07 04:38:13;;;;;;;0.20;0.20;;;;;;;15.26;100.00;100440.97;4991230;28;20501;-86
2023/11/07 04:40:40;;;;;;;0.20;0.20;;;;;;;15.12;100.00;100422.03;4975219;28;20040;-87
2023/11/07 04:43:07;;;;;;;0.20;0.20;;;;;;;15.30;100.00;100425.00;4974763;28;20565;-86
2023/11/07 04:45:33;;;;;;;0.20;0.20;;;;;;;15.25;100.00;100433.78;4992438;28;20022;-87
2023/11/07 04:47:58;;;;;;;0.20;0.20;;;;;;;15.21;100.00;100416.91;4991105;28;20041;-87
2023/11/07 04:50:26;;;;;;;0.20;0.20;;;;;;;15.34;100.00;100445.44;4979642;28;20026;-87
2023/11/07 04:52:53;;;;;;;0.20;0.20;;;;;;;15.34;100.00;100442.63;4993666;28;20025;-86
2023/11/07 04:55:18;;;;;;;0.20;0.20;;;;;;;15.18;100.00;100445.75;4994253;28;20044;-86
2023/11/07 04:57:45;;;;;;;0.20;0.20;;;;;;;15.00;100.00;100422.34;5011708;28;20029;-86
2023/11/07 05:00:12;;;;;;;0.30;0.30;;;;;;;15.18;100.00;100457.75;4993779;28;20022;-86
2023/11/07 05:02:38;;;;;;;0.20;0.20;;;;;;;15.03;100.00;100446.81;4994092;28;20030;-87
2023/11/07 05:05:04;;;;;;;0.20;0.20;;;;;;;15.15;100.00;100452.91;4998268;28;20502;-86
2023/11/07 05:07:30;;;;;;;0.20;0.20;;;;;;;15.08;100.00;100447.25;5031030;28;20032;-86
2023/11/07 05:09:58;;;;;;;0.20;0.20;;;;;;;15.03;100.00;100444.00;5013445;28;20018;-86
2023/11/07 05:12:24;;;;;;;0.20;0.20;;;;;;;15.36;100.00;100463.50;5013489;28;20025;-86
2023/11/07 05:14:49;;;;;;;0.20;0.20;;;;;;;15.30;100.00;100453.84;5013313;28;20017;-86
2023/11/07 05:17:15;;;;;;;0.20;0.20;;;;;;;15.38;100.00;100465.91;5013194;28;20030;-87
2023/11/07 05:19:40;;;;;;;0.20;0.20;;;;;;;15.33;100.00;100458.66;5013499;28;20025;-86
2023/11/07 05:22:05;;;;;;;0.20;0.20;;;;;;;15.28;100.00;100449.78;5013219;28;20065;-86
2023/11/07 05:24:31;;;;;;;0.20;0.20;;;;;;;15.38;100.00;100486.31;5013136;28;20428;-86
2023/11/07 05:26:57;;;;;;;0.20;0.20;;;;;;;15.30;100.00;100472.66;5013045;28;20473;-86
2023/11/07 05:29:23;;;;;;;0.20;0.20;;;;;;;15.34;100.00;100471.50;5012973;28;20067;-86
2023/11/07 05:31:49;;;;;;;0.20;0.20;;;;;;;15.31;100.00;100468.66;5013317;28;20053;-86
2023/11/07 05:34:14;;;;;;;0.20;0.20;;;;;;;15.28;100.00;100447.00;5013197;28;20032;-86
2023/11/07 05:36:41;;;;;;;0.20;0.20;;;;;;;15.38;100.00;100471.50;5012894;28;20112;-86
2023/11/07 05:39:06;;;;;;;0.20;0.20;;;;;;;15.27;100.00;100451.00;5030778;28;20034;-85
2023/11/07 05:41:32;;;;;;;0.20;0.20;;;;;;;15.30;100.00;100444.63;5030734;28;20032;-86
2023/11/07 05:43:58;;;;;;;0.20;0.20;;;;;;;15.36;100.00;100452.28;5012959;28;20030;-86
2023/11/07 05:46:23;;;;;;;0.20;0.20;;;;;;;15.34;100.00;100431.41;5013113;28;20029;-85
2023/11/07 05:48:51;;;;;;;0.20;0.20;;;;;;;15.53;100.00;100445.19;5013024;28;20103;-86
2023/11/07 05:51:19;;;;;;;0.20;0.20;;;;;;;15.28;100.00;100405.75;5012962;28;20049;-85
2023/11/07 05:53:44;;;;;;;0.20;0.20;;;;;;;15.22;100.00;100403.69;5030506;28;20112;-86
2023/11/07 05:56:10;;;;;;;0.20;0.20;;;;;;;15.11;100.00;100384.00;5014694;28;20036;-87
2023/11/07 05:58:37;;;;;;;0.20;0.20;;;;;;;15.21;100.00;100402.91;5015979;28;20383;-86
2023/11/07 06:01:04;;;;;;;0.20;0.20;;;;;;;15.26;100.00;100396.13;5031036;28;20686;-86
2023/11/07 06:03:30;;;;;;;0.20;0.20;;;;;;;15.34;100.00;100398.59;5012051;28;20032;-86
2023/11/07 06:05:56;;;;;;;0.20;0.20;;;;;;;15.38;100.00;100407.81;5016551;28;20418;-85
2023/11/07 06:08:21;;;;;;;0.20;0.20;;;;;;;15.37;100.00;100399.81;5016711;28;20113;-86
2023/11/07 06:10:47;;;;;;;0.20;0.20;;;;;;;15.34;100.00;100390.19;5016597;28;20032;-85
2023/11/07 06:13:13;;;;;;;0.20;0.20;;;;;;;15.49;100.00;100399.47;5016655;28;20112;-86
2023/11/07 06:15:39;;;;;;;0.20;0.20;;;;;;;15.56;100.00;100395.94;5016656;28;20040;-85
2023/11/07 06:18:05;;;;;;;0.20;0.20;;;;;;;15.70;100.00;100427.69;5016666;28;20034;-87
2023/11/07 06:20:30;;;;;;;0.20;0.20;;;;;;;15.69;100.00;100426.09;5034808;28;20181;-86
2023/11/07 06:22:55;;;;;;;0.20;0.20;;;;;;;15.91;100.00;100454.25;5015948;28;20022;-86
2023/11/07 06:25:21;;;;;;;0.20;0.20;;;;;;;15.87;100.00;100447.81;5034007;28;20028;-85
2023/11/07 06:27:47;;;;;;;0.20;0.20;;;;;;;15.82;100.00;100449.03;5016327;28;20041;-86
2023/11/07 06:30:16;;;;;;;0.20;0.20;;;;;;;16.12;100.00;100499.28;5034510;28;20017;-86
2023/11/07 06:32:41;;;;;;;0.20;0.20;;;;;;;16.12;100.00;100504.09;5015977;28;20048;-86
2023/11/07 06:35:08;;;;;;;0.20;0.20;;;;;;;15.97;100.00;100477.94;5016181;28;20026;-86
2023/11/07 06:37:35;;;;;;;0.20;0.20;;;;;;;16.13;100.00;100500.88;5016071;28;20028;-86
2023/11/07 06:40:13;;;;;;;0.20;0.20;;;;;;;16.13;100.00;100497.28;5016039;28;20028;-86
2023/11/07 06:42:38;;;;;;;0.20;0.20;;;;;;;16.07;100.00;100496.84;5015980;28;20104;-86
2023/11/07 06:45:05;;;;;;;0.20;0.20;;;;;;;16.07;100.00;100507.28;5015788;28;20056;-84
2023/11/07 06:47:31;;;;;;;0.20;0.20;;;;;;;16.20;100.00;100522.59;5016088;28;20354;-85
2023/11/07 06:49:56;;;;;;;0.20;0.20;;;;;;;16.44;100.00;100557.59;5015721;28;20036;-85
2023/11/07 06:52:22;;;;;;;0.20;0.20;;;;;;;16.33;100.00;100543.50;5016227;28;20035;-85
2023/11/07 06:54:47;;;;;;;0.20;0.20;;;;;;;16.37;100.00;100563.19;5015245;28;20524;-85
2023/11/07 06:57:13;;;;;;;0.20;0.20;;;;;;;16.28;100.00;100543.88;5015514;28;20485;-85
2023/11/07 06:59:38;;;;;;;0.20;0.20;;;;;;;16.45;100.00;100562.00;5015795;28;20477;-85
2023/11/07 07:02:04;;;;;;;0.20;0.20;;;;;;;16.44;100.00;100537.94;5015726;28;20053;-85
2023/11/07 07:04:29;;;;;;;0.20;0.20;;;;;;;16.36;100.00;100478.16;5015662;28;20120;-85
2023/11/07 07:06:55;;;;;;;0.20;0.20;;;;;;;16.41;100.00;100483.38;5015555;28;20534;-85
2023/11/07 07:09:21;;;;;;;0.20;0.20;;;;;;;16.55;100.00;100479.00;5015181;28;20028;-85
2023/11/07 07:11:47;;;;;;;0.20;0.20;;;;;;;16.53;100.00;100468.16;5015803;28;20132;-85
2023/11/07 07:14:13;;;;;;;0.20;0.20;;;;;;;16.45;100.00;100500.22;5015511;28;20029;-86
2023/11/07 07:16:39;;;;;;;0.20;0.20;;;;;;;16.35;100.00;100481.31;5015321;28;20167;-85
2023/11/07 07:19:06;;;;;;;0.20;0.20;;;;;;;16.55;100.00;100501.47;5015279;28;20087;-85
2023/11/07 07:21:34;;;;;;;0.20;0.20;;;;;;;16.75;100.00;100526.06;5001259;28;20070;-86
2023/11/07 07:24:08;;;;;;;0.20;0.20;;;;;;;16.68;100.00;100520.41;5011749;28;20049;-85
2023/11/07 07:26:34;;;;;;;0.20;0.20;;;;;;;16.75;100.00;100517.63;4995676;28;20025;-85
2023/11/07 07:28:59;;;;;;;0.20;0.20;;;;;;;16.73;100.00;100489.13;4995557;28;20033;-85
2023/11/07 07:31:27;;;;;;;0.20;0.20;;;;;;;16.91;100.00;100483.53;5013145;28;20033;-85
2023/11/07 07:33:53;;;;;;;0.20;0.20;;;;;;;17.10;100.00;100501.22;5011718;28;20034;-85
2023/11/07 07:36:22;;;;;;;0.20;0.20;;;;;;;17.10;100.00;100501.22;5011857;28;20037;-85
2023/11/07 07:38:48;;;;;;;0.20;0.20;;;;;;;17.12;100.00;100510.88;4995674;28;20026;-85
2023/11/07 07:41:14;;;;;;;0.20;0.20;;;;;;;17.09;100.00;100522.91;5012455;28;20026;-86
2023/11/07 07:43:39;;;;;;;0.20;0.20;;;;;;;16.97;100.00;100503.63;4979237;28;20486;-86
2023/11/07 07:46:07;;;;;;;0.20;0.20;;;;;;;16.96;100.00;100516.09;4995071;28;20108;-85
2023/11/07 07:48:32;;;;;;;0.20;0.20;;;;;;;16.90;100.00;100510.03;4995288;28;20022;-85
2023/11/07 07:51:01;;;;;;;0.20;0.20;;;;;;;17.15;100.00;100543.84;5001353;28;20072;-85
2023/11/07 07:53:27;;;;;;;0.20;0.20;;;;;;;17.14;100.00;100539.41;5011138;28;20091;-85
2023/11/07 07:55:55;;;;;;;0.20;0.20;;;;;;;17.06;100.00;100525.75;4994778;28;20030;-85
2023/11/07 07:58:21;;;;;;;0.20;0.20;;;;;;;17.11;100.00;100522.53;4995064;28;20050;-85
2023/11/07 08:00:49;;;;;;;0.20;0.20;;;;;;;17.11;100.00;100508.47;4995198;28;20060;-85
2023/11/07 08:03:16;;;;;;;0.20;0.20;;;;;;;17.13;100.00;100501.25;4994804;28;20026;-85
2023/11/07 08:05:44;;;;;;;0.20;0.20;;;;;;;17.30;100.00;100505.28;4985338;28;20066;-85
2023/11/07 08:08:10;;;;;;;0.20;0.20;;;;;;;17.41;100.00;100494.03;4976092;28;20031;-85
2023/11/07 08:10:36;;;;;;;0.20;0.20;;;;;;;17.39;100.00;100513.31;5012358;28;20212;-84
2023/11/07 08:13:06;;;;;;;0.20;0.20;;;;;;;17.34;100.00;100530.59;4994640;28;20129;-85
2023/11/07 08:15:35;;;;;;;0.20;0.20;;;;;;;17.29;100.00;100518.53;4994637;28;20026;-85
2023/11/07 08:18:06;;;;;;;0.20;0.20;;;;;;;17.26;100.00;100522.16;4994505;28;20394;-85
2023/11/07 08:20:34;;;;;;;0.20;0.20;;;;;;;17.61;100.00;100517.72;5012264;28;20025;-85
2023/11/07 08:32:30;;;;;;;0.20;0.20;;;;;;;17.30;100.00;100485.59;5379698;23;20197;-86
2023/11/07 08:34:57;;;;;;;0.20;0.20;;;;;;;17.55;100.00;100513.72;4975231;28;20478;-85
2023/11/07 08:37:23;;;;;;;0.20;0.20;;;;;;;17.55;100.00;100489.19;4974962;28;20050;-85
2023/11/07 08:39:49;;;;;;;0.20;0.20;;;;;;;17.98;100.00;100528.56;4974627;28;20034;-85
2023/11/07 08:42:15;;;;;;;0.20;0.20;;;;;;;18.18;100.00;100543.03;4974734;28;20080;-85
2023/11/07 08:44:40;;;;;;;0.20;0.20;;;;;;;18.22;100.00;100537.38;4974754;28;20437;-85
2023/11/07 08:47:06;;;;;;;0.20;0.20;;;;;;;18.20;100.00;100540.59;4991872;28;20510;-85
2023/11/07 08:49:32;;;;;;;0.20;0.20;;;;;;;18.23;100.00;100541.81;4974633;28;20023;-84
2023/11/07 08:51:57;;;;;;;0.20;0.20;;;;;;;18.43;100.00;100548.59;4991951;28;20029;-84
2023/11/07 08:54:23;;;;;;;0.20;0.20;;;;;;;18.33;100.00;100561.50;5011182;28;20040;-84
2023/11/07 08:56:49;;;;;;;0.20;0.20;;;;;;;18.37;100.00;100543.75;5011635;28;20481;-84
2023/11/07 08:59:18;;;;;;;0.20;0.20;;;;;;;18.20;100.00;100540.59;5011566;28;20029;-84
2023/11/07 09:01:46;;;;;;;0.20;0.20;;;;;;;18.42;100.00;100568.69;4993649;28;20050;-85
2023/11/07 09:04:12;;;;;;;0.20;0.20;;;;;;;18.31;100.00;100572.34;4993667;28;20083;-84
2023/11/07 09:06:39;;;;;;;0.20;0.20;;;;;;;18.11;100.00;100554.31;5011505;28;20034;-84
2023/11/07 09:09:12;;;;;;;0.20;0.20;;;;;;;18.14;100.00;100563.94;4993691;28;20072;-84
2023/11/07 09:11:37;;;;;;;0.20;0.20;;;;;;;18.17;100.00;100569.56;5011477;28;20025;-85
2023/11/07 09:14:03;;;;;;;0.20;0.20;;;;;;;18.16;100.00;100564.34;4993429;28;20033;-85
2023/11/07 09:16:29;;;;;;;0.20;0.20;;;;;;;18.13;100.00;100567.97;4993593;28;20428;-84
2023/11/07 09:18:54;;;;;;;0.20;0.20;;;;;;;18.02;100.00;100554.72;4993918;28;20029;-84
2023/11/07 09:21:19;;;;;;;0.20;0.20;;;;;;;18.09;100.00;100542.63;4995400;28;20032;-84
2023/11/07 09:23:45;;;;;;;0.20;0.20;;;;;;;18.22;100.00;100535.38;4993833;28;20115;-86
2023/11/07 09:26:10;;;;;;;0.20;0.20;;;;;;;18.11;100.00;100517.72;4993852;28;20029;-85
2023/11/07 09:28:36;;;;;;;0.20;0.20;;;;;;;18.02;100.00;100523.75;5011881;28;20054;-87
2023/11/07 09:40:23;;;;;;;0.20;0.20;;;;;;;17.61;100.00;100402.38;5248670;23;20137;-87
2023/11/07 09:42:48;;;;;;;0.20;0.20;;;;;;;17.74;100.00;100434.56;4974126;28;20386;-87
2023/11/07 09:45:16;;;;;;;0.20;0.20;;;;;;;17.79;100.00;100476.34;4974348;28;20022;-86
2023/11/07 09:47:47;;;;;;;0.20;0.20;;;;;;;17.84;100.00;100485.56;4973881;28;20072;-87
2023/11/07 09:50:14;;;;;;;0.20;0.20;;;;;;;17.61;100.00;100435.34;4977182;28;20026;-87
2023/11/07 09:52:45;;;;;;;0.20;0.20;;;;;;;17.87;100.00;100465.06;4993075;28;20389;-86
2023/11/07 09:55:16;;;;;;;0.20;0.20;;;;;;;17.75;100.00;100469.91;4993301;28;20238;-87
2023/11/07 09:57:56;;;;;;;0.20;0.20;;;;;;;17.79;100.00;100476.34;4993042;28;20034;-86
2023/11/07 10:00:25;;;;;;;0.20;0.20;;;;;;;17.56;100.00;100442.19;4978735;28;20034;-86
2023/11/07 10:02:50;;;;;;;0.20;0.20;;;;;;;17.58;100.00;100461.44;4973941;28;20027;-87
2023/11/07 10:05:18;;;;;;;0.20;0.20;;;;;;;17.59;100.00;100458.25;4973783;28;20031;-86
2023/11/07 10:07:48;;;;;;;0.20;0.20;;;;;;;17.44;100.00;100442.59;4973452;28;20121;-86
2023/11/07 10:10:16;;;;;;;0.20;0.20;;;;;;;17.31;100.00;100445.03;4991125;28;20022;-86
2023/11/07 10:12:45;;;;;;;0.20;0.20;;;;;;;17.41;100.00;100449.81;4973843;28;20475;-86
2023/11/07 10:15:15;;;;;;;0.20;0.20;;;;;;;17.36;100.00;100463.47;4974089;28;20030;-86
2023/11/07 10:17:41;;;;;;;0.20;0.20;;;;;;;17.44;100.00;100481.97;4973772;28;20045;-86
2023/11/07 10:20:11;;;;;;;0.20;0.20;;;;;;;17.63;100.00;100512.53;4974125;28;20314;-86
2023/11/07 10:22:45;;;;;;;0.20;0.20;;;;;;;17.47;100.00;100492.41;4992268;28;20022;-87
2023/11/07 10:25:29;;;;;;;0.20;0.20;;;;;;;17.50;100.00;100502.88;4973506;28;20026;-86
2023/11/07 10:28:08;;;;;;;0.20;0.20;;;;;;;17.44;100.00;100502.47;4991071;28;20034;-86
2023/11/07 10:30:44;;;;;;;0.20;0.20;;;;;;;17.48;100.00;100483.59;4973739;28;20494;-87
2023/11/07 10:33:34;;;;;;;0.20;0.20;;;;;;;17.43;100.00;100447.44;4969640;28;20037;-86
2023/11/07 10:36:01;;;;;;;0.20;0.20;;;;;;;17.45;100.00;100416.06;4952288;28;20087;-87
2023/11/07 10:38:31;;;;;;;0.30;0.30;;;;;;;17.52;100.00;100410.44;4935057;29;20069;-88
2023/11/07 10:40:57;;;;;;;0.20;0.20;;;;;;;17.46;100.00;100414.88;4935637;29;20051;-87
2023/11/07 10:43:35;;;;;;;0.28;0.28;;;;;;;17.56;100.00;100416.84;4935372;29;20419;-87
2023/11/07 10:46:10;;;;;;;0.20;0.20;;;;;;;17.59;100.00;100382.31;4934719;28;20290;-87
2023/11/07 10:48:40;;;;;;;0.20;0.20;;;;;;;17.32;100.00;100338.97;4952442;29;20034;-87
2023/11/07 10:51:14;;;;;;;0.20;0.20;;;;;;;17.37;100.00;100358.25;4958348;28;20057;-86
2023/11/07 10:53:44;;;;;;;0.20;0.20;;;;;;;17.34;100.00;100364.66;4994333;28;20038;-87
2023/11/07 10:56:13;;;;;;;0.20;0.20;;;;;;;17.48;100.00;100387.16;4976758;28;20026;-86
2023/11/07 10:58:43;;;;;;;0.20;0.20;;;;;;;17.45;100.00;100355.00;4994211;28;20395;-86
2023/11/07 11:01:09;;;;;;;0.20;0.20;;;;;;;17.47;100.00;100309.56;4976545;28;20026;-86
2023/11/07 11:03:37;;;;;;;0.20;0.20;;;;;;;17.50;100.00;100320.03;4976826;28;20474;-86
2023/11/07 11:06:05;;;;;;;0.20;0.20;;;;;;;17.52;100.00;100328.84;4976667;28;20018;-86
2023/11/07 11:08:33;;;;;;;0.20;0.20;;;;;;;17.26;100.00;100296.41;4994180;28;20057;-86
2023/11/07 11:11:03;;;;;;;0.20;0.20;;;;;;;17.41;100.00;100308.38;4976172;28;20113;-86
2023/11/07 11:13:29;;;;;;;0.20;0.20;;;;;;;17.45;100.00;100314.81;4976469;28;20030;-86
2023/11/07 11:15:56;;;;;;;0.20;0.20;;;;;;;17.41;100.00;100303.56;4976352;28;20376;-87
2023/11/07 11:18:31;;;;;;;0.20;0.20;;;;;;;17.52;100.00;100314.78;4976561;28;20431;-86
2023/11/07 11:21:09;;;;;;;0.20;0.20;;;;;;;17.52;100.00;100311.97;4974531;28;20030;-86
2023/11/07 11:23:56;;;;;;;0.20;0.20;;;;;;;17.64;100.00;100338.88;4972606;28;20516;-86
2023/11/07 11:26:28;;;;;;;0.20;0.20;;;;;;;17.54;100.00;100327.25;4977683;28;20100;-87
2023/11/07 11:28:53;;;;;;;0.20;0.20;;;;;;;17.42;100.00;100313.63;4976342;28;20034;-87
2023/11/07 11:31:21;;;;;;;0.20;0.20;;;;;;;17.40;100.00;100312.41;4993963;28;20478;-86
2023/11/07 11:33:46;;;;;;;0.20;0.20;;;;;;;17.36;100.00;100303.19;4975944;28;20133;-86